Berkeley, CA

11:39 PM PST on December 27, 2014 (GMT -0800)
Alcatraz Ave | Change Station
CLOSE
Current Station
Personal Weather Station
Location: Oakland, CA
Elevation: 138 ft
Nearby Weather Stations

Elev 138 ft 37.85 °N, 122.26 °W | Updated 1 second ago

Partly Cloudy
Partly Cloudy
45.5 °F
Feels Like 46 °F
N
0.0
Wind Variable Wind from North
Gusts 0.0 mph

Today
High -- | Low -- °F
--% Chance of Precip.
Yesterday
High -- | Low -- °F
Precip. -- in
7:23 AM 4:57 PM
Waxing Crescent, 45% visible
Pressure 30.38 in
Visibility 10.0 miles
Clouds Mostly Cloudy 20000 ft
Windchill 46 °F
Dew Point 34 °F
Humidity 64%
Rainfall 0.00 in
Snow Depth Not available.
UV 0.0 out of 12
Pollen 5.70 out of 12
Air Quality Not available.
Flu Activity Not available.
METAR KOAK 280653Z 06004KT 10SM BKN200 06/03 A3038 RMK AO2 SLP285 T00610028

More Conditions Fewer Conditions

Pressure 30.38 in
Visibility 10.0 miles
Clouds Mostly Cloudy 20000 ft
Windchill 46 °F
Dew Point 34 °F
Humidity 64%
Rainfall 0.00 in
Snow Depth Not available.
UV 0.0 out of 12
Pollen 5.70 out of 12
Air Quality Not available.
Flu Activity Not available.
METAR KOAK 280653Z 06004KT 10SM BKN200 06/03 A3038 RMK AO2 SLP285 T00610028

More Conditions Fewer Conditions

10-Day Weather Forecast

Almanac

Astronomy

Dec. 27, 2014 Rise Set
Actual Time
Civil Twilight
Nautical Twilight
Astronomical Twilight
Moon
Length of Visible Light
Length of Day
Tomorrow will be .
, % of the Moon is Illuminated

Today's Extremes

State Highs State Lows

Community

WunderPhotos

Upload Photos

1,781,210 photos uploaded!

WunderBlogs® & News

Nearby

Air Quality

  Air Quality AQ Index Pollutant
Not available.

Snow Depth

Station Depth Elevation

Earthquake Activity

City Distance Mag. Time & Date
Minimum magnitude displayed is 2.5.

Coastal Water Temperatures

Place Temperature

Nearby Weather Stations